D/T METAR WX W/DIR W/SPE G/SPE TEMP DEWP
16/01/19 03:50 EGPH 160350Z 23015KT 9999 -RA OVC017 08/06 Q0995 -RA SW (230°) 17.3mph 8°C 6°C
16/01/19 03:20 EGPH 160320Z 24021KT 9999 BKN019 OVC033 09/06 Q0995 WSW (240°) 24.2mph 9°C 6°C
16/01/19 02:50 EGPH 160250Z 23021KT 9999 BKN022 09/05 Q0996 SW (230°) 24.2mph 9°C 5°C
16/01/19 02:20 EGPH 160220Z 23018KT 9999 BKN021 09/05 Q0996 SW (230°) 20.7mph 9°C 5°C
16/01/19 01:50 EGPH 160150Z 23020G31KT 9999 SCT022 09/05 Q0997 SW (230°) 23.0mph 35.7mph 9°C 5°C
16/01/19 01:20 EGPH 160120Z 24022KT 9999 SCT021 09/05 Q0997 WSW (240°) 25.3mph 9°C 5°C
16/01/19 00:50 EGPH 160050Z 23017G29KT 9999 BKN022 09/05 Q0998 SW (230°) 19.6mph 33.4mph 9°C 5°C
16/01/19 00:20 EGPH 160020Z 23019KT 9999 BKN021 09/05 Q0998 SW (230°) 21.9mph 9°C 5°C
15/01/19 23:50 EGPH 152350Z 23015KT 9999 BKN022 09/06 Q0999 SW (230°) 17.3mph 9°C 6°C
15/01/19 23:20 EGPH 152320Z 24016KT 9999 BKN021 09/06 Q0999 WSW (240°) 18.4mph 9°C 6°C
15/01/19 22:50 EGPH 152250Z 23017KT 9999 BKN022 09/06 Q1000 SW (230°) 19.6mph 9°C 6°C
15/01/19 22:20 EGPH 152220Z 23019KT 9999 BKN039 09/06 Q1000 SW (230°) 21.9mph 9°C 6°C
15/01/19 21:50 EGPH 152150Z 23016KT 9999 SCT024 09/06 Q1000 SW (230°) 18.4mph 9°C 6°C
15/01/19 21:20 EGPH 152120Z 24011KT 9999 FEW022 SCT034 09/06 Q1001 WSW (240°) 12.7mph 9°C 6°C
15/01/19 20:20 EGPH 152020Z 24011KT 9999 SCT019 09/06 Q1002 WSW (240°) 12.7mph 9°C 6°C
15/01/19 19:50 EGPH 151950Z 24015KT 9999 FEW016 SCT032 09/07 Q1002 REDZ WSW (240°) 17.3mph 9°C 7°C
15/01/19 19:20 EGPH 151920Z 23014KT 9999 DZ SCT018 09/07 Q1003 DZ SW (230°) 16.1mph 9°C 7°C
15/01/19 18:50 EGPH 151850Z 23018KT 9999 SCT043 09/06 Q1003 SW (230°) 20.7mph 9°C 6°C
15/01/19 18:20 EGPH 151820Z 24019KT 9999 FEW018 SCT032 09/06 Q1004 WSW (240°) 21.9mph 9°C 6°C
15/01/19 17:50 EGPH 151750Z 24018KT 9999 FEW018 SCT032 09/06 Q1004 WSW (240°) 20.7mph 9°C 6°C
15/01/19 17:20 EGPH 151720Z 23019KT 9999 SCT021 09/06 Q1004 SW (230°) 21.9mph 9°C 6°C
15/01/19 16:50 EGPH 151650Z 23014KT 9999 SCT021 09/05 Q1005 SW (230°) 16.1mph 9°C 5°C
15/01/19 16:20 EGPH 151620Z 24016KT 9999 SCT023 09/05 Q1006 WSW (240°) 18.4mph 9°C 5°C
15/01/19 15:50 EGPH 151550Z 24016KT 9999 BKN040 09/05 Q1006 WSW (240°) 18.4mph 9°C 5°C
15/01/19 15:20 EGPH 151520Z 24015KT 9999 FEW020 SCT046 09/05 Q1006 WSW (240°) 17.3mph 9°C 5°C
15/01/19 14:50 EGPH 151450Z 24014KT 9999 FEW020 SCT046 09/06 Q1006 WSW (240°) 16.1mph 9°C 6°C
15/01/19 14:20 EGPH 151420Z 24017KT 9999 FEW017 10/06 Q1007 WSW (240°) 19.6mph 10°C 6°C
15/01/19 13:50 EGPH 151350Z 24019KT 9999 SCT017 09/07 Q1007 WSW (240°) 21.9mph 9°C 7°C
15/01/19 13:20 EGPH 151320Z 24021KT 9999 8000S VCSH FEW016 SCT030 09/07 Q1007 VCSH WSW (240°) 24.2mph 9°C 7°C
15/01/19 12:50 EGPH 151250Z 24017KT 9999 BKN018 10/07 Q1007 WSW (240°) 19.6mph 10°C 7°C
15/01/19 12:20 EGPH 151220Z 23017KT 9999 8000N VCSH SCT017 10/07 Q1008 VCSH SW (230°) 19.6mph 10°C 7°C
15/01/19 11:50 EGPH 151150Z 23018KT 9999 FEW018 10/07 Q1008 SW (230°) 20.7mph 10°C 7°C
15/01/19 11:20 EGPH 151120Z 23018KT 9999 FEW018 10/07 Q1009 SW (230°) 20.7mph 10°C 7°C
15/01/19 10:50 EGPH 151050Z 24015G25KT 9999 FEW019 SCT030 10/07 Q1009 WSW (240°) 17.3mph 28.8mph 10°C 7°C
15/01/19 10:20 EGPH 151020Z 24013KT 9999 SCT018 SCT025 10/07 Q1009 WSW (240°) 15.0mph 10°C 7°C
15/01/19 09:50 EGPH 150950Z 25012KT 9999 FEW018 SCT023 10/07 Q1009 WSW (250°) 13.8mph 10°C 7°C
15/01/19 09:20 EGPH 150920Z 25013KT 9999 FEW017 SCT024 10/07 Q1009 WSW (250°) 15.0mph 10°C 7°C
15/01/19 08:50 EGPH 150850Z 25015KT 9999 FEW015 SCT033 10/08 Q1009 WSW (250°) 17.3mph 10°C 8°C
15/01/19 08:20 EGPH 150820Z 25014KT 9000 FEW013 BKN034 10/08 Q1009 WSW (250°) 16.1mph 10°C 8°C
15/01/19 07:50 EGPH 150750Z 25017G29KT 8000 -DZ BKN014 10/08 Q1008 -DZ WSW (250°) 19.6mph 33.4mph 10°C 8°C
15/01/19 07:20 EGPH 150720Z 25017KT 9000 -DZ BKN014 10/08 Q1009 -DZ WSW (250°) 19.6mph 10°C 8°C
15/01/19 06:50 EGPH 150650Z 25019G29KT 8000 -DZ BKN014 10/08 Q1009 -DZ WSW (250°) 21.9mph 33.4mph 10°C 8°C
15/01/19 06:20 EGPH 150620Z 25017KT 9999 BKN013 09/08 Q1009 WSW (250°) 19.6mph 9°C 8°C
15/01/19 05:50 EGPH 150550Z 24018KT 9999 BKN013 09/08 Q1009 WSW (240°) 20.7mph 9°C 8°C
15/01/19 05:20 EGPH 150520Z 24023KT 9999 BKN013 09/08 Q1009 WSW (240°) 26.5mph 9°C 8°C
15/01/19 04:50 EGPH 150450Z 25021KT 9999 FEW015 09/08 Q1009 WSW (250°) 24.2mph 9°C 8°C
15/01/19 04:20 EGPH 150420Z 24022KT 9999 FEW015 09/07 Q1009 WSW (240°) 25.3mph 9°C 7°C
15/01/19 03:50 EGPH 150350Z 24022KT 9999 FEW015 08/07 Q1010 WSW (240°) 25.3mph 8°C 7°C
15/01/19 03:20 EGPH 150320Z 24020KT 9999 FEW015 09/07 Q1010 WSW (240°) 23.0mph 9°C 7°C
15/01/19 02:20 EGPH 150220Z 24018KT 9999 FEW015 09/07 Q1011 WSW (240°) 20.7mph 9°C 7°C
15/01/19 01:50 EGPH 150150Z 25014KT 9999 FEW015 BKN046 08/07 Q1011 WSW (250°) 16.1mph 8°C 7°C
15/01/19 01:20 EGPH 150120Z 24015G25KT 9999 BKN018 09/07 Q1012 WSW (240°) 17.3mph 28.8mph 9°C 7°C
15/01/19 00:50 EGPH 150050Z 24018KT 9999 SCT013 BKN049 09/07 Q1012 WSW (240°) 20.7mph 9°C 7°C
15/01/19 00:20 EGPH 150020Z 25017KT 9999 BKN014 09/07 Q1012 WSW (250°) 19.6mph 9°C 7°C
14/01/19 23:50 EGPH 142350Z 25015KT 9999 BKN015 08/07 Q1012 WSW (250°) 17.3mph 8°C 7°C
14/01/19 23:20 EGPH 142320Z 25015KT 9999 BKN013 08/07 Q1013 WSW (250°) 17.3mph 8°C 7°C
14/01/19 22:50 EGPH 142250Z 25015KT 9999 BKN013 08/07 Q1013 WSW (250°) 17.3mph 8°C 7°C
14/01/19 22:20 EGPH 142220Z 24015KT 9999 OVC012 08/07 Q1013 WSW (240°) 17.3mph 8°C 7°C
14/01/19 21:50 EGPH 142150Z 24017KT 9999 -RA OVC012 08/06 Q1014 -RA WSW (240°) 19.6mph 8°C 6°C
14/01/19 21:20 EGPH 142120Z 24015KT 9999 SCT012 BKN023 07/06 Q1014 WSW (240°) 17.3mph 7°C 6°C
14/01/19 20:50 EGPH 142050Z 24016KT 9999 SCT012 07/06 Q1014 WSW (240°) 18.4mph 7°C 6°C
14/01/19 20:20 EGPH 142020Z 25011KT 9999 SCT013 07/06 Q1014 WSW (250°) 12.7mph 7°C 6°C
14/01/19 19:50 EGPH 141950Z 25011KT 9999 SCT013 07/05 Q1015 WSW (250°) 12.7mph 7°C 5°C
14/01/19 19:20 EGPH 141920Z 25008KT 9999 SCT014 07/05 Q1015 WSW (250°) 9.2mph 7°C 5°C
14/01/19 18:50 EGPH 141850Z 25011KT 9999 FEW015 07/05 Q1016 WSW (250°) 12.7mph 7°C 5°C
14/01/19 18:20 EGPH 141820Z 24011KT 9999 FEW012 SCT037 06/05 Q1016 WSW (240°) 12.7mph 6°C 5°C
14/01/19 17:50 EGPH 141750Z 25009KT 9999 FEW015 SCT037 06/04 Q1016 WSW (250°) 10.4mph 6°C 4°C
14/01/19 17:20 EGPH 141720Z 25010KT 9999 SCT017 06/04 Q1016 WSW (250°) 11.5mph 6°C 4°C
14/01/19 16:50 EGPH 141650Z 25009KT 9999 FEW027 06/04 Q1016 WSW (250°) 10.4mph 6°C 4°C
14/01/19 16:20 EGPH 141620Z 24010KT 9999 FEW031 06/03 Q1016 WSW (240°) 11.5mph 6°C 3°C
14/01/19 15:50 EGPH 141550Z 24010KT 9999 FEW043 06/04 Q1016 WSW (240°) 11.5mph 6°C 4°C
14/01/19 15:20 EGPH 141520Z 25012KT 9999 FEW043 07/04 Q1017 WSW (250°) 13.8mph 7°C 4°C
14/01/19 14:50 EGPH 141450Z 25010KT 9999 FEW043 07/04 Q1017 WSW (250°) 11.5mph 7°C 4°C
14/01/19 14:20 EGPH 141420Z 24010KT 9999 FEW040 07/04 Q1017 WSW (240°) 11.5mph 7°C 4°C
14/01/19 13:50 EGPH 141350Z 24009KT 9999 FEW049 07/04 Q1017 WSW (240°) 10.4mph 7°C 4°C
14/01/19 13:20 EGPH 141320Z 24009KT CAVOK 06/04 Q1018 WSW (240°) 10.4mph 6°C 4°C
14/01/19 12:50 EGPH 141250Z 25008KT CAVOK 07/05 Q1018 WSW (250°) 9.2mph 7°C 5°C
14/01/19 12:20 EGPH 141220Z 23006KT CAVOK 06/04 Q1018 SW (230°) 6.9mph 6°C 4°C
14/01/19 11:50 EGPH 141150Z 24006KT CAVOK 06/04 Q1018 WSW (240°) 6.9mph 6°C 4°C
14/01/19 11:20 EGPH 141120Z 24006KT CAVOK 04/04 Q1018 WSW (240°) 6.9mph 4°C 4°C
14/01/19 10:50 EGPH 141050Z 24004KT CAVOK 03/03 Q1018 WSW (240°) 4.6mph 3°C 3°C
14/01/19 10:20 EGPH 141020Z VRB02KT 9999 FEW035 03/02 Q1019 N (0°) 2.3mph 3°C 2°C
14/01/19 09:50 EGPH 140950Z 23003KT 9999 FEW036 02/02 Q1018 SW (230°) 3.5mph 2°C 2°C
14/01/19 09:20 EGPH 140920Z 27002KT 7000 FEW034 03/03 Q1018 W (270°) 2.3mph 3°C 3°C
14/01/19 08:50 EGPH 140850Z VRB01KT 7000 FEW030 03/03 Q1018 N (0°) 1.2mph 3°C 3°C
14/01/19 08:20 EGPH 140820Z 25004KT 8000 -RA SCT030 03/03 Q1018 -RA WSW (250°) 4.6mph 3°C 3°C
14/01/19 07:50 EGPH 140750Z 25003KT 9999 FEW008 SCT029 03/03 Q1018 WSW (250°) 3.5mph 3°C 3°C
14/01/19 07:20 EGPH 140720Z VRB03KT 9999 BKN007 03/03 Q1017 N (0°) 3.5mph 3°C 3°C
14/01/19 06:50 EGPH 140650Z 15004KT 090V200 9999 BKN008 04/03 Q1017 SSE (150°) 4.6mph 4°C 3°C
14/01/19 06:20 EGPH 140620Z 09004KT 060V140 9999 BKN006 04/03 Q1017 E (90°) 4.6mph 4°C 3°C
14/01/19 05:20 EGPH 140520Z VRB03KT 9999 FEW005 BKN021 02/02 Q1016 N (0°) 3.5mph 2°C 2°C
14/01/19 04:50 EGPH 140450Z 06002KT 9999 -RA FEW010 BKN015 BKN027 03/03 Q1016 -RA ENE (60°) 2.3mph 3°C 3°C
14/01/19 04:20 EGPH 140420Z 05007KT 9999 -RA BKN012 04/03 Q1016 -RA NE (50°) 8.1mph 4°C 3°C
14/01/19 03:50 EGPH 140350Z 07006KT 9999 -RA FEW009 BKN029 04/03 Q1015 -RA ENE (70°) 6.9mph 4°C 3°C
14/01/19 03:20 EGPH 140320Z 05007KT 9999 -RA BKN032 04/04 Q1015 -RA NE (50°) 8.1mph 4°C 4°C
14/01/19 02:50 EGPH 140250Z 03008KT 9999 -RA BKN034 05/03 Q1014 -RA NNE (30°) 9.2mph 5°C 3°C
14/01/19 02:20 EGPH 140220Z 26005KT 9999 SCT042 05/02 Q1014 W (260°) 5.8mph 5°C 2°C
14/01/19 01:50 EGPH 140150Z 25005KT CAVOK 04/02 Q1013 WSW (250°) 5.8mph 4°C 2°C
14/01/19 01:20 EGPH 140120Z 27004KT CAVOK 03/02 Q1013 W (270°) 4.6mph 3°C 2°C
14/01/19 00:50 EGPH 140050Z 24008KT CAVOK 02/01 Q1013 WSW (240°) 9.2mph 2°C 1°C
14/01/19 00:20 EGPH 140020Z 23007KT CAVOK 02/00 Q1012 SW (230°) 8.1mph 2°C 0°C
13/01/19 23:50 EGPH 132350Z 27006KT CAVOK 05/02 Q1011 W (270°) 6.9mph 5°C 2°C
13/01/19 23:20 EGPH 132320Z 27007KT CAVOK 06/02 Q1011 W (270°) 8.1mph 6°C 2°C
13/01/19 22:50 EGPH 132250Z 28007KT CAVOK 06/02 Q1010 W (280°) 8.1mph 6°C 2°C
13/01/19 22:20 EGPH 132220Z 27007KT CAVOK 06/03 Q1010 W (270°) 8.1mph 6°C 3°C
13/01/19 21:50 EGPH 132150Z 27006KT 9999 FEW034 06/03 Q1010 W (270°) 6.9mph 6°C 3°C
13/01/19 21:20 EGPH 132120Z 27008KT 9999 FEW034 07/03 Q1009 W (270°) 9.2mph 7°C 3°C
13/01/19 20:50 EGPH 132050Z 27007KT 9999 FEW034 07/03 Q1008 W (270°) 8.1mph 7°C 3°C
13/01/19 20:20 EGPH 132020Z 27010KT 9999 FEW034 07/03 Q1008 W (270°) 11.5mph 7°C 3°C
13/01/19 19:50 EGPH 131950Z 27008KT 9999 FEW034 07/03 Q1007 W (270°) 9.2mph 7°C 3°C
13/01/19 19:20 EGPH 131920Z 27011KT 240V310 CAVOK 07/03 Q1007 W (270°) 12.7mph 7°C 3°C
13/01/19 18:50 EGPH 131850Z 28011KT CAVOK 07/03 Q1007 W (280°) 12.7mph 7°C 3°C
13/01/19 18:20 EGPH 131820Z 27011KT 9999 FEW034 07/03 Q1007 W (270°) 12.7mph 7°C 3°C
13/01/19 17:50 EGPH 131750Z 27013KT 9999 FEW034 07/03 Q1006 W (270°) 15.0mph 7°C 3°C
13/01/19 17:20 EGPH 131720Z 27013KT 9999 FEW034 07/02 Q1006 W (270°) 15.0mph 7°C 2°C
13/01/19 16:50 EGPH 131650Z 27013G25KT 9999 FEW034 07/02 Q1005 W (270°) 15.0mph 28.8mph 7°C 2°C
13/01/19 16:20 EGPH 131620Z 27014KT 9999 FEW032 08/02 Q1005 W (270°) 16.1mph 8°C 2°C
13/01/19 15:50 EGPH 131550Z 27014KT 9999 FEW032 08/03 Q1005 W (270°) 16.1mph 8°C 3°C
13/01/19 15:20 EGPH 131520Z 28015KT 9999 FEW029 08/03 Q1005 W (280°) 17.3mph 8°C 3°C
13/01/19 14:50 EGPH 131450Z 28013G24KT 250V310 9999 FEW028 09/03 Q1004 W (280°) 15.0mph 27.6mph 9°C 3°C
13/01/19 14:20 EGPH 131420Z 28014KT 9999 FEW028 09/03 Q1004 W (280°) 16.1mph 9°C 3°C
13/01/19 13:50 EGPH 131350Z 28013KT 9999 SCT028 09/04 Q1005 W (280°) 15.0mph 9°C 4°C
13/01/19 13:20 EGPH 131320Z 28015G25KT 9999 FEW030 09/03 Q1005 W (280°) 17.3mph 28.8mph 9°C 3°C
13/01/19 12:50 EGPH 131250Z 28014KT 9999 SCT032 09/03 Q1005 W (280°) 16.1mph 9°C 3°C
13/01/19 12:20 EGPH 131220Z 28015KT 9999 FEW033 09/03 Q1005 W (280°) 17.3mph 9°C 3°C
13/01/19 11:20 EGPH 131120Z 28013KT 9999 FEW029 10/03 Q1005 W (280°) 15.0mph 10°C 3°C
13/01/19 10:50 EGPH 131050Z 28014KT 240V320 9999 FEW029 10/04 Q1005 W (280°) 16.1mph 10°C 4°C
13/01/19 10:20 EGPH 131020Z 28016G29KT 9999 SCT027 10/05 Q1005 W (280°) 18.4mph 33.4mph 10°C 5°C
13/01/19 09:50 EGPH 130950Z 27014KT 9999 FEW031 10/05 Q1004 W (270°) 16.1mph 10°C 5°C
13/01/19 09:20 EGPH 130920Z 27015KT 9999 -SHRA SCT028 10/06 Q1005 -SHRA W (270°) 17.3mph 10°C 6°C
13/01/19 08:50 EGPH 130850Z 26015KT 9999 SCT031 10/06 Q1004 W (260°) 17.3mph 10°C 6°C
13/01/19 08:20 EGPH 130820Z 26016KT 9999 SCT025 10/07 Q1004 W (260°) 18.4mph 10°C 7°C
13/01/19 07:50 EGPH 130750Z 26016KT 9999 BKN020 11/08 Q1004 W (260°) 18.4mph 11°C 8°C
13/01/19 07:20 EGPH 130720Z 26017KT 9999 SCT018 11/08 Q1004 W (260°) 19.6mph 11°C 8°C
13/01/19 06:20 EGPH 130620Z 26018G30KT 9999 BKN015 11/08 Q1005 W (260°) 20.7mph 34.5mph 11°C 8°C
13/01/19 05:50 EGPH 130550Z 26019KT 9999 BKN015 11/08 Q1005 W (260°) 21.9mph 11°C 8°C
13/01/19 05:20 EGPH 130520Z 26019KT 9999 BKN018 11/08 Q1005 W (260°) 21.9mph 11°C 8°C
13/01/19 04:50 EGPH 130450Z 26019G29KT 9999 SCT015 10/08 Q1006 W (260°) 21.9mph 33.4mph 10°C 8°C
13/01/19 04:20 EGPH 130420Z 26015KT 9999 SCT018 10/08 Q1006 W (260°) 17.3mph 10°C 8°C
13/01/19 03:20 EGPH 130320Z 26015KT 9999 SCT016 BKN021 10/08 Q1007 W (260°) 17.3mph 10°C 8°C
13/01/19 02:50 EGPH 130250Z 26017KT 9999 SCT015 BKN026 11/08 Q1008 W (260°) 19.6mph 11°C 8°C
13/01/19 02:20 EGPH 130220Z 25018KT 9999 BKN011 10/09 Q1008 WSW (250°) 20.7mph 10°C 9°C
13/01/19 01:50 EGPH 130150Z 25019KT 9999 BKN012 10/09 Q1007 WSW (250°) 21.9mph 10°C 9°C
13/01/19 01:20 EGPH 130120Z 25020KT 9000 OVC013 10/08 Q1008 WSW (250°) 23.0mph 10°C 8°C